Time;durP1;ratioP1;P1;durP2;ratioP2;P2;SDS_P1;SDS_P2;PMS_P1;PMS_P2;Temp;Humidity;BMP_temperature;BMP_pressure;BME280_temperature;BME280_humidity;BME280_pressure;Samples;Min_cycle;Max_cycle;Signal;HPM_P1;HPM_P2
2023/08/16 00:00:43;;;;;;;4.75;1.88;;;;;;;19.46;100.00;98969.88;15290736;19;20098;-44
2023/08/16 00:06:16;;;;;;;2.83;1.40;;;;;;;19.42;100.00;98986.91;15286359;19;20021;-46
2023/08/16 00:11:41;;;;;;;3.83;2.00;;;;;;;19.39;100.00;98999.09;15290355;19;20015;-45
2023/08/16 00:17:08;;;;;;;2.60;1.52;;;;;;;19.35;100.00;99006.84;15284890;19;20018;-47
2023/08/16 00:22:33;;;;;;;2.15;1.30;;;;;;;19.31;100.00;99007.44;15289692;19;20022;-48
2023/08/16 00:27:58;;;;;;;1.92;1.20;;;;;;;19.28;100.00;99003.25;15290352;19;20011;-48
2023/08/16 00:33:32;;;;;;;2.75;1.23;;;;;;;19.25;100.00;98981.78;15300057;19;20025;-48
2023/08/16 00:38:57;;;;;;;2.67;1.25;;;;;;;19.22;100.00;98993.97;15306812;19;20035;-46
2023/08/16 00:44:21;;;;;;;2.63;1.40;;;;;;;19.21;100.00;98992.28;15299096;19;20022;-45
2023/08/16 00:49:50;;;;;;;4.00;1.90;;;;;;;19.20;100.00;98989.75;15293507;19;20015;-49
2023/08/16 00:55:16;;;;;;;5.47;1.65;;;;;;;19.18;100.00;98994.59;15298967;19;20706;-47
2023/08/16 01:00:41;;;;;;;2.45;1.23;;;;;;;19.14;100.00;98985.09;15307315;19;20019;-47
2023/08/16 01:06:13;;;;;;;1.40;1.13;;;;;;;19.11;100.00;98988.25;15300908;19;20017;-47
2023/08/16 01:11:46;;;;;;;2.50;1.35;;;;;;;19.08;100.00;98984.88;15302233;19;20097;-46
2023/08/16 01:17:14;;;;;;;2.35;1.25;;;;;;;19.07;100.00;98985.06;15300871;19;20078;-46
2023/08/16 01:22:51;;;;;;;5.65;1.70;;;;;;;19.05;100.00;98976.25;15292988;19;20007;-47
2023/08/16 01:28:19;;;;;;;3.80;1.45;;;;;;;19.02;100.00;98984.84;15294951;19;20361;-48
2023/08/16 01:33:51;;;;;;;6.18;1.70;;;;;;;18.98;100.00;98987.16;15293740;19;20011;-46
2023/08/16 01:39:15;;;;;;;410.85;9.13;;;;;;;18.94;100.00;98980.41;15297385;19;20102;-46
2023/08/16 01:44:44;;;;;;;117.70;7.15;;;;;;;18.89;100.00;98996.50;15294950;19;20010;-45
2023/08/16 01:50:11;;;;;;;3.10;2.45;;;;;;;18.86;100.00;99016.03;15293875;19;20011;-44
2023/08/16 01:55:35;;;;;;;4.25;2.42;;;;;;;18.83;100.00;99027.34;15286297;19;20025;-47
2023/08/16 02:01:10;;;;;;;3.83;2.10;;;;;;;18.81;100.00;99019.38;15296317;19;20073;-44
2023/08/16 02:06:34;;;;;;;2.35;1.80;;;;;;;18.81;100.00;99026.69;15294652;19;20011;-45
2023/08/16 02:11:59;;;;;;;2.78;1.77;;;;;;;18.78;100.00;99034.22;15296971;19;20018;-46
2023/08/16 02:17:27;;;;;;;3.08;1.80;;;;;;;18.75;100.00;99012.81;15290691;19;20022;-45
2023/08/16 02:22:52;;;;;;;558.72;13.85;;;;;;;18.73;100.00;99020.38;15291257;19;20015;-45
2023/08/16 02:28:16;;;;;;;993.40;22.80;;;;;;;18.70;100.00;99033.56;15288176;19;20039;-44
2023/08/16 02:33:45;;;;;;;249.70;7.60;;;;;;;18.66;100.00;99041.28;15289470;19;20042;-51
2023/08/16 02:39:09;;;;;;;20.70;3.33;;;;;;;18.66;100.00;99044.00;15295815;19;20007;-48
2023/08/16 02:44:34;;;;;;;12.13;3.05;;;;;;;18.66;100.00;99041.28;15289900;19;20436;-46
2023/08/16 02:50:01;;;;;;;9.70;2.63;;;;;;;18.67;100.00;99029.31;15288896;19;20392;-46
2023/08/16 02:55:26;;;;;;;6.55;2.20;;;;;;;18.69;100.00;99042.78;15287302;19;20051;-46
2023/08/16 03:00:53;;;;;;;2.33;2.13;;;;;;;18.70;100.00;99039.84;15287717;19;20019;-47
2023/08/16 03:06:20;;;;;;;5.90;2.20;;;;;;;18.71;100.00;99044.28;15289923;19;20035;-45
2023/08/16 03:11:44;;;;;;;11.77;2.45;;;;;;;18.73;100.00;99054.97;15289347;19;20018;-45
2023/08/16 03:17:10;;;;;;;32.92;2.67;;;;;;;18.73;100.00;99044.94;15290541;19;20596;-45
2023/08/16 03:22:38;;;;;;;109.15;5.22;;;;;;;18.71;100.00;99047.00;15289205;19;20010;-46
2023/08/16 03:28:04;;;;;;;44.47;5.68;;;;;;;18.70;100.00;99053.50;15286404;19;20081;-45
2023/08/16 03:33:29;;;;;;;184.07;6.80;;;;;;;18.70;100.00;99045.31;15284532;19;20552;-79
2023/08/16 03:38:56;;;;;;;319.52;8.55;;;;;;;18.66;100.00;99048.66;15305836;19;20393;-78
2023/08/16 03:44:20;;;;;;;337.75;8.68;;;;;;;18.65;100.00;99053.25;15304647;19;20018;-78
2023/08/16 03:49:45;;;;;;;433.95;9.88;;;;;;;18.60;100.00;99045.66;15294394;19;20023;-76
2023/08/16 03:55:12;;;;;;;265.90;7.88;;;;;;;18.59;100.00;99065.78;15292268;19;20090;-78
2023/08/16 04:00:37;;;;;;;163.32;6.25;;;;;;;18.58;100.00;99072.28;15295471;19;20477;-77
2023/08/16 04:06:01;;;;;;;109.80;5.65;;;;;;;18.59;100.00;99084.91;15285753;19;20760;-77
2023/08/16 04:11:29;;;;;;;26.35;5.30;;;;;;;18.61;100.00;99096.47;15289417;19;20010;-75
2023/08/16 04:16:53;;;;;;;67.63;6.53;;;;;;;18.63;100.00;99104.47;15292839;19;20010;-76
2023/08/16 04:22:18;;;;;;;94.90;8.13;;;;;;;18.63;100.00;99107.19;15293020;19;20486;-77
2023/08/16 04:27:46;;;;;;;113.35;8.75;;;;;;;18.64;100.00;99123.38;15292144;19;20011;-76
2023/08/16 04:33:12;;;;;;;98.85;9.10;;;;;;;18.65;100.00;99132.38;15289876;19;20014;-76
2023/08/16 04:38:36;;;;;;;146.40;10.52;;;;;;;18.68;100.00;99132.00;15285491;19;20090;-76
2023/08/16 04:44:05;;;;;;;123.13;8.65;;;;;;;18.70;100.00;99143.56;15290715;19;20021;-77
2023/08/16 04:49:32;;;;;;;175.70;9.23;;;;;;;18.70;100.00;99143.56;15290018;19;20019;-77
2023/08/16 04:54:58;;;;;;;182.00;8.65;;;;;;;18.71;100.00;99134.34;15288501;19;20021;-76
2023/08/16 05:00:26;;;;;;;123.80;8.45;;;;;;;18.73;100.00;99142.31;15292477;19;20374;-77
2023/08/16 05:05:51;;;;;;;144.48;7.93;;;;;;;18.73;100.00;99151.38;15290140;19;20002;-76
2023/08/16 05:11:15;;;;;;;105.53;8.30;;;;;;;18.75;100.00;99149.31;15321821;19;20014;-77
2023/08/16 05:16:43;;;;;;;16.88;6.57;;;;;;;18.77;100.00;99166.31;15306899;19;20018;-76
2023/08/16 05:22:07;;;;;;;48.95;7.07;;;;;;;18.78;100.00;99170.72;15304084;19;20019;-77
2023/08/16 05:27:32;;;;;;;532.42;13.65;;;;;;;18.81;100.00;99172.25;15303358;19;20094;-77
2023/08/16 05:32:59;;;;;;;633.85;15.68;;;;;;;18.78;100.00;99161.72;15301067;19;20014;-76
2023/08/16 05:38:25;;;;;;;229.70;10.23;;;;;;;18.79;100.00;99174.31;15304298;19;20080;-77
2023/08/16 05:43:50;;;;;;;106.70;9.15;;;;;;;18.85;100.00;99186.34;15297166;19;20014;-79
2023/08/16 05:49:18;;;;;;;78.95;7.43;;;;;;;18.89;100.00;99195.81;15303675;19;20023;-76
2023/08/16 05:54:42;;;;;;;142.88;8.13;;;;;;;18.94;100.00;99196.09;15296731;19;20085;-79
2023/08/16 06:00:07;;;;;;;36.92;7.38;;;;;;;18.97;100.00;99203.06;15306537;19;20070;-82
2023/08/16 06:05:34;;;;;;;13.27;6.88;;;;;;;19.01;100.00;99199.72;15298039;19;20018;-77
2023/08/16 06:10:59;;;;;;;12.10;6.95;;;;;;;19.05;100.00;99209.22;15296539;19;20078;-77
2023/08/16 06:16:23;;;;;;;8.20;7.13;;;;;;;19.09;100.00;99199.59;15292117;19;20090;-77
2023/08/16 06:21:51;;;;;;;6.28;5.68;;;;;;;19.09;100.00;99196.88;15300203;19;20070;-77
2023/08/16 06:27:15;;;;;;;6.45;5.78;;;;;;;19.12;100.00;99183.84;15296462;19;20007;-77
2023/08/16 06:32:40;;;;;;;7.13;6.43;;;;;;;19.15;100.00;99177.97;15293995;19;20019;-77
2023/08/16 06:38:14;;;;;;;7.00;6.30;;;;;;;19.20;100.00;99186.44;15298298;19;20041;-77
2023/08/16 06:43:38;;;;;;;11.43;6.70;;;;;;;19.29;100.00;99200.78;15297697;19;20033;-76
2023/08/16 06:49:03;;;;;;;14.82;7.57;;;;;;;19.36;100.00;99197.03;15292169;19;20028;-77
2023/08/16 06:54:32;;;;;;;9.00;7.45;;;;;;;19.44;100.00;99201.50;15295400;19;20031;-76
2023/08/16 06:59:57;;;;;;;6.35;5.75;;;;;;;19.48;100.00;99207.41;15301675;19;20025;-77
2023/08/16 07:05:21;;;;;;;7.25;6.25;;;;;;;19.53;100.00;99191.28;15330196;19;20010;-76
2023/08/16 07:10:51;;;;;;;7.72;6.38;;;;;;;19.64;100.00;99195.34;15305651;19;20036;-77
2023/08/16 07:16:16;;;;;;;8.18;7.38;;;;;;;19.70;100.00;99189.91;15299084;19;20006;-77
2023/08/16 07:21:40;;;;;;;7.97;7.18;;;;;;;19.82;100.00;99189.31;15291930;19;20038;-77
2023/08/16 07:27:07;;;;;;;8.40;7.60;;;;;;;20.00;100.00;99194.28;15294574;19;20528;-76
2023/08/16 07:32:32;;;;;;;7.32;6.63;;;;;;;20.15;100.00;99196.88;15292059;19;20620;-76
2023/08/16 07:38:04;;;;;;;7.47;6.78;;;;;;;20.29;100.00;99193.13;15290890;19;20037;-76
2023/08/16 07:43:31;;;;;;;7.53;6.43;;;;;;;20.44;100.00;99192.97;15293133;19;21672;-76
2023/08/16 07:48:58;;;;;;;5.93;5.43;;;;;;;20.61;100.00;99204.38;15294962;19;20021;-76
2023/08/16 07:54:22;;;;;;;6.32;5.15;;;;;;;20.87;100.00;99196.44;15289455;19;20010;-74
2023/08/16 07:59:51;;;;;;;4.43;4.03;;;;;;;21.08;100.00;99198.13;15294095;19;20035;-76
2023/08/16 08:05:24;;;;;;;2.60;2.40;;;;;;;21.35;100.00;99129.56;15287005;19;20102;-75
2023/08/16 08:10:52;;;;;;;2.70;2.47;;;;;;;21.67;100.00;99091.34;15284233;19;20045;-73
2023/08/16 08:16:19;;;;;;;2.78;2.50;;;;;;;21.90;100.00;99063.38;15283474;19;20362;-75
2023/08/16 08:21:44;;;;;;;2.13;2.00;;;;;;;22.01;100.00;99005.06;15285678;19;20010;-75
2023/08/16 08:27:11;;;;;;;2.00;1.80;;;;;;;22.06;100.00;98981.59;15282749;19;20015;-74
2023/08/16 08:32:38;;;;;;;2.38;2.17;;;;;;;22.22;100.00;98982.97;15282137;19;20443;-75
2023/08/16 08:38:09;;;;;;;2.30;2.10;;;;;;;22.29;100.00;98968.13;15280036;19;20015;-75
2023/08/16 08:43:35;;;;;;;;;;;;;;;22.39;100.00;98945.66;15279188;19;20031;-74
2023/08/16 08:49:20;;;;;;;2.13;1.92;;;;;;;22.65;100.00;98931.91;15285972;19;19911;-73
2023/08/16 08:54:46;;;;;;;3.10;2.30;;;;;;;22.80;100.00;98928.78;15288375;19;20028;-73
2023/08/16 09:00:14;;;;;;;2.63;2.42;;;;;;;23.00;100.00;98920.31;15297755;19;20029;-74
2023/08/16 09:05:43;;;;;;;2.40;2.20;;;;;;;23.16;100.00;98922.44;15290140;19;20049;-74
2023/08/16 09:11:07;;;;;;;2.67;2.47;;;;;;;23.30;100.00;98914.88;15296101;19;20466;-74
2023/08/16 09:16:32;;;;;;;2.92;2.60;;;;;;;23.35;100.00;98904.00;15294670;19;20699;-74
2023/08/16 09:22:00;;;;;;;3.33;2.90;;;;;;;23.41;100.00;98902.22;15312207;19;20016;-75
2023/08/16 09:27:26;;;;;;;3.70;2.60;;;;;;;23.46;100.00;98898.81;15293926;19;20025;-73
2023/08/16 09:32:51;;;;;;;2.92;2.05;;;;;;;23.50;100.00;98891.75;15289242;19;20014;-74
2023/08/16 09:38:25;;;;;;;2.40;2.15;;;;;;;23.47;100.00;98889.44;15292155;19;20025;-74
2023/08/16 09:43:54;;;;;;;4.07;2.00;;;;;;;23.50;100.00;98889.00;15289802;19;20010;-74
2023/08/16 09:49:19;;;;;;;6.10;2.03;;;;;;;23.50;100.00;98883.50;15289699;19;20524;-74
2023/08/16 09:54:51;;;;;;;2.10;1.90;;;;;;;23.44;100.00;98887.19;15286778;19;20049;-74
2023/08/16 10:00:17;;;;;;;2.53;2.00;;;;;;;23.42;100.00;98887.41;15283593;19;20563;-73
2023/08/16 10:05:43;;;;;;;2.40;2.13;;;;;;;23.39;100.00;98883.22;15283735;19;20016;-74
2023/08/16 10:11:12;;;;;;;3.15;2.05;;;;;;;23.43;100.00;98893.75;15290097;19;20010;-74
2023/08/16 10:16:38;;;;;;;2.78;2.20;;;;;;;23.35;100.00;98898.50;15285076;19;20347;-73
2023/08/16 10:22:05;;;;;;;3.63;2.15;;;;;;;23.31;100.00;98893.69;15291394;19;20010;-75
2023/08/16 10:27:56;;;;;;;2.50;1.90;;;;;;;23.20;100.00;98898.09;15288850;19;20025;-73
2023/08/16 10:33:26;;;;;;;1.80;1.60;;;;;;;23.18;100.00;98900.19;15282977;19;20012;-73
2023/08/16 10:38:56;;;;;;;4.05;1.70;;;;;;;23.14;100.00;98909.97;15290701;19;20034;-74
2023/08/16 10:44:33;;;;;;;3.45;1.90;;;;;;;23.08;100.00;98911.72;15285435;19;20553;-75
2023/08/16 10:49:58;;;;;;;3.60;1.70;;;;;;;23.04;100.00;98914.13;15280451;19;20007;-74
2023/08/16 10:55:22;;;;;;;2.60;1.80;;;;;;;23.00;100.00;98914.81;15285344;19;20389;-74
2023/08/16 11:00:58;;;;;;;3.05;1.98;;;;;;;22.93;100.00;98918.47;15289890;19;20011;-74
2023/08/16 11:06:25;;;;;;;2.55;1.77;;;;;;;22.94;100.00;98919.31;15285023;19;20023;-75
2023/08/16 11:11:53;;;;;;;3.25;1.83;;;;;;;22.93;100.00;98904.72;15286542;19;20013;-74
2023/08/16 11:17:26;;;;;;;4.68;1.50;;;;;;;22.96;100.00;98908.09;14948393;19;10000784;-74
2023/08/16 11:22:51;;;;;;;3.80;1.73;;;;;;;23.00;100.00;98912.06;15277706;19;20266;-74
2023/08/16 11:28:15;;;;;;;3.03;1.73;;;;;;;23.02;100.00;98908.00;15284658;19;20027;-75
2023/08/16 11:33:50;;;;;;;3.72;1.80;;;;;;;23.04;100.00;98913.28;15279820;19;20019;-75
2023/08/16 11:39:15;;;;;;;2.53;1.90;;;;;;;23.06;100.00;98911.13;15283889;19;20088;-74
2023/08/16 11:44:47;;;;;;;2.08;1.88;;;;;;;23.00;100.00;98907.38;15281138;19;20021;-75
2023/08/16 11:50:15;;;;;;;;;;;;;;;22.90;100.00;98896.09;15284613;19;20018;-75
2023/08/16 11:55:41;;;;;;;3.20;2.13;;;;;;;22.93;100.00;98903.91;15274585;19;19910;-75
2023/08/16 12:01:09;;;;;;;2.83;2.58;;;;;;;22.91;100.00;98900.53;15284748;19;20031;-75
2023/08/16 12:06:37;;;;;;;13.20;3.30;;;;;;;22.97;100.00;98896.88;15278577;19;20011;-75
2023/08/16 12:12:02;;;;;;;4.18;3.00;;;;;;;22.98;100.00;98882.06;15281853;19;20015;-74
2023/08/16 12:17:28;;;;;;;5.43;2.50;;;;;;;22.98;100.00;98871.09;15282302;19;20585;-75
2023/08/16 12:22:58;;;;;;;3.03;2.20;;;;;;;22.98;100.00;98864.72;15280860;19;20015;-76
2023/08/16 12:28:22;;;;;;;4.65;2.10;;;;;;;23.11;100.00;98877.47;15292883;19;20006;-75
2023/08/16 12:33:48;;;;;;;4.22;2.20;;;;;;;23.30;100.00;98873.63;15290886;19;20074;-74
2023/08/16 12:39:15;;;;;;;3.28;2.20;;;;;;;23.54;100.00;98870.97;15297370;19;20034;-74
2023/08/16 12:44:40;;;;;;;2.75;2.28;;;;;;;23.80;100.00;98844.91;15292449;19;20014;-75
2023/08/16 12:50:04;;;;;;;6.38;2.00;;;;;;;24.22;100.00;98845.94;15296092;19;20014;-74
2023/08/16 12:55:33;;;;;;;2.92;2.38;;;;;;;24.52;100.00;98829.22;15291803;19;20022;-75
2023/08/16 13:00:59;;;;;;;3.97;2.10;;;;;;;24.84;100.00;98825.22;15291097;19;20589;-74
2023/08/16 13:06:25;;;;;;;3.17;1.90;;;;;;;25.11;100.00;98822.69;15290098;19;20375;-74
2023/08/16 13:11:53;;;;;;;2.20;2.00;;;;;;;25.48;100.00;98814.03;15293650;19;20013;-74
2023/08/16 13:17:25;;;;;;;2.35;1.60;;;;;;;25.66;100.00;98798.31;15308431;19;20486;-72
2023/08/16 13:22:52;;;;;;;4.63;1.70;;;;;;;25.92;100.00;98802.31;15322961;19;20027;-75
2023/08/16 13:28:27;;;;;;;2.40;1.65;;;;;;;26.07;100.00;98793.41;15314814;19;20115;-75
2023/08/16 13:33:55;;;;;;;2.22;1.63;;;;;;;26.21;100.00;98787.56;15291643;19;20018;-82
2023/08/16 13:39:23;;;;;;;2.92;1.77;;;;;;;26.22;100.00;98790.09;15337826;19;20006;-78
2023/08/16 13:45:02;;;;;;;4.72;1.60;;;;;;;26.33;100.00;98780.00;15360062;19;20032;-77
2023/08/16 13:50:32;;;;;;;1.70;1.40;;;;;;;26.53;100.00;98767.53;15297088;19;20014;-80
2023/08/16 13:56:00;;;;;;;2.50;1.42;;;;;;;26.43;100.00;98749.72;15290585;19;20365;-79
2023/08/16 14:01:28;;;;;;;8.60;1.40;;;;;;;26.22;100.00;98750.56;15294147;19;20027;-80
2023/08/16 14:06:53;;;;;;;2.88;1.38;;;;;;;26.08;100.00;98733.53;15302884;19;20082;-78
2023/08/16 14:12:18;;;;;;;3.78;1.60;;;;;;;25.99;100.00;98744.16;15295192;19;20093;-80
2023/08/16 14:17:45;;;;;;;3.22;1.55;;;;;;;25.92;100.00;98740.75;15295068;19;20014;-80
2023/08/16 14:23:10;;;;;;;12.68;1.63;;;;;;;25.93;100.00;98751.53;15292705;19;20021;-81
2023/08/16 14:28:35;;;;;;;1.98;1.40;;;;;;;25.88;100.00;98745.94;15294578;19;20014;-81
2023/08/16 14:34:02;;;;;;;1.70;1.35;;;;;;;26.06;100.00;98739.28;15286393;19;20090;-80
2023/08/16 14:39:27;;;;;;;2.50;1.20;;;;;;;26.61;100.00;98731.16;15293669;19;20014;-82
2023/08/16 14:44:53;;;;;;;6.03;1.30;;;;;;;27.30;100.00;98713.03;15288947;19;20015;-82
2023/08/16 14:50:20;;;;;;;1.13;1.00;;;;;;;27.98;100.00;98703.28;15294026;19;20038;-82
2023/08/16 14:55:46;;;;;;;2.03;1.20;;;;;;;28.51;100.00;98700.47;15290382;19;20017;-80
2023/08/16 15:01:10;;;;;;;1.33;1.10;;;;;;;28.95;100.00;98712.22;15292774;19;20816;-82
2023/08/16 15:06:37;;;;;;;2.03;1.10;;;;;;;28.69;100.00;98698.28;15305615;19;20018;-78
2023/08/16 15:12:02;;;;;;;4.60;1.25;;;;;;;28.36;100.00;98709.53;15353576;19;20026;-83
2023/08/16 15:17:28;;;;;;;13.88;1.48;;;;;;;28.21;100.00;98703.97;15305142;19;20070;-83
2023/08/16 15:22:56;;;;;;;6.97;1.20;;;;;;;28.18;100.00;98697.00;15282346;19;20017;-84
2023/08/16 15:28:21;;;;;;;3.33;1.10;;;;;;;28.38;100.00;98695.44;15304702;19;20146;-81
2023/08/16 15:33:46;;;;;;;1.35;0.85;;;;;;;28.93;100.00;98703.34;15298586;19;20792;-84
2023/08/16 15:39:14;;;;;;;0.82;0.80;;;;;;;29.40;100.00;98693.13;15296725;19;20013;-84
2023/08/16 15:44:32;;;;;;;3.45;0.90;;;;;;;29.66;100.00;98691.13;15295157;19;20421;-85
2023/08/16 15:49:57;;;;;;;1.25;0.85;;;;;;;29.87;100.00;98694.66;15298297;19;20013;-85
2023/08/16 15:55:25;;;;;;;2.03;0.90;;;;;;;30.02;100.00;98681.88;15295133;19;20077;-85
2023/08/16 16:00:49;;;;;;;3.25;0.90;;;;;;;30.13;100.00;98680.72;15292564;19;20035;-83
2023/08/16 16:06:14;;;;;;;3.38;1.00;;;;;;;30.11;100.00;98664.34;15288188;19;20090;-80
2023/08/16 16:11:42;;;;;;;1.63;0.90;;;;;;;30.23;100.00;98660.41;15291585;19;20477;-81
2023/08/16 16:17:23;;;;;;;1.52;0.90;;;;;;;30.22;100.00;98653.19;15284912;19;20014;-83
2023/08/16 16:22:47;;;;;;;0.93;0.80;;;;;;;30.30;100.00;98649.78;15291370;19;20359;-84
2023/08/16 16:28:14;;;;;;;1.50;1.00;;;;;;;30.36;100.00;98647.81;15290435;19;20014;-83
2023/08/16 16:33:42;;;;;;;2.42;1.00;;;;;;;30.23;100.00;98650.09;15287211;19;20024;-79
2023/08/16 16:39:15;;;;;;;1.02;0.80;;;;;;;29.95;100.00;98659.97;15293795;19;21051;-83
2023/08/16 16:44:44;;;;;;;1.48;0.90;;;;;;;29.78;100.00;98674.16;15280014;19;20469;-83
2023/08/16 16:50:08;;;;;;;2.13;0.90;;;;;;;29.85;100.00;98673.84;15290245;19;20012;-83
2023/08/16 16:55:33;;;;;;;1.27;0.73;;;;;;;29.73;100.00;98663.06;15284891;19;20014;-80
2023/08/16 17:01:00;;;;;;;1.15;0.82;;;;;;;29.62;100.00;98673.38;15292562;19;20035;-80
2023/08/16 17:06:26;;;;;;;2.33;0.88;;;;;;;29.38;100.00;98664.81;15287033;19;20021;-82
2023/08/16 17:11:51;;;;;;;1.52;0.90;;;;;;;28.90;100.00;98658.41;15300705;19;20541;-82
2023/08/16 17:17:19;;;;;;;2.67;0.85;;;;;;;28.54;100.00;98660.28;15300655;19;20798;-81
2023/08/16 17:22:45;;;;;;;2.75;1.00;;;;;;;28.17;100.00;98673.19;15300441;19;20021;-81
2023/08/16 17:28:10;;;;;;;1.95;0.80;;;;;;;27.81;100.00;98675.78;15305415;19;20018;-81
2023/08/16 17:33:38;;;;;;;2.58;0.77;;;;;;;27.50;100.00;98676.44;15304901;19;20021;-83
2023/08/16 17:39:09;;;;;;;2.25;1.00;;;;;;;27.13;100.00;98684.69;15298494;19;20018;-79
2023/08/16 17:44:35;;;;;;;2.08;0.88;;;;;;;26.73;100.00;98681.25;15294853;19;20066;-74
2023/08/16 17:50:02;;;;;;;1.52;0.90;;;;;;;26.51;100.00;98686.84;15293870;19;20010;-74
2023/08/16 17:55:27;;;;;;;1.30;0.90;;;;;;;26.22;100.00;98690.66;15290176;19;20488;-75
2023/08/16 18:00:51;;;;;;;1.35;1.05;;;;;;;26.00;100.00;98699.72;15303198;19;20017;-77
2023/08/16 18:06:20;;;;;;;1.35;0.95;;;;;;;25.79;100.00;98701.41;15301299;19;20517;-76
2023/08/16 18:11:44;;;;;;;1.23;0.90;;;;;;;25.61;100.00;98701.66;15305204;19;20014;-78
2023/08/16 18:17:09;;;;;;;2.97;1.00;;;;;;;25.42;100.00;98701.94;15294942;19;20014;-77
2023/08/16 18:22:36;;;;;;;1.83;1.10;;;;;;;25.20;100.00;98705.44;15289093;19;20375;-77
2023/08/16 18:28:01;;;;;;;1.75;1.05;;;;;;;25.02;100.00;98709.28;15295503;19;20333;-77
2023/08/16 18:33:25;;;;;;;1.65;1.10;;;;;;;24.88;100.00;98711.50;15293155;19;20016;-77
2023/08/16 18:38:59;;;;;;;1.50;1.00;;;;;;;24.74;100.00;98704.63;15292552;19;20392;-78
2023/08/16 18:44:25;;;;;;;1.98;1.10;;;;;;;24.54;100.00;98703.13;15292395;19;20019;-77
2023/08/16 18:49:49;;;;;;;2.65;1.40;;;;;;;24.33;100.00;98715.69;15294938;19;20082;-78
2023/08/16 18:55:17;;;;;;;2.50;1.00;;;;;;;24.13;100.00;98710.56;15294441;19;20097;-78
2023/08/16 19:00:42;;;;;;;1.45;1.20;;;;;;;23.95;100.00;98723.41;15309591;19;20015;-78
2023/08/16 19:06:07;;;;;;;5.57;1.30;;;;;;;23.86;100.00;98727.56;15325264;19;20025;-79
2023/08/16 19:11:34;;;;;;;4.30;1.25;;;;;;;23.76;100.00;98722.66;15322611;19;20006;-78
2023/08/16 19:16:59;;;;;;;2.10;1.17;;;;;;;23.64;100.00;98730.94;15301465;19;20018;-78
2023/08/16 19:22:23;;;;;;;2.08;1.30;;;;;;;23.59;100.00;98730.81;15300818;19;20018;-78
2023/08/16 19:27:51;;;;;;;1.20;1.10;;;;;;;23.53;100.00;98718.03;15298396;19;20046;-80
2023/08/16 19:33:15;;;;;;;3.13;1.20;;;;;;;23.48;100.00;98726.13;15301372;19;20011;-78
2023/08/16 19:38:46;;;;;;;1.75;1.20;;;;;;;23.37;100.00;98714.91;15295013;19;20014;-77
2023/08/16 19:44:17;;;;;;;1.80;1.10;;;;;;;23.26;100.00;98721.22;15290231;19;20017;-77
2023/08/16 19:49:41;;;;;;;1.23;1.13;;;;;;;23.15;100.00;98717.38;15303255;19;20011;-78
2023/08/16 19:55:07;;;;;;;3.97;1.20;;;;;;;23.04;100.00;98716.25;15289177;19;20469;-76
2023/08/16 20:00:35;;;;;;;2.05;1.30;;;;;;;22.97;100.00;98710.03;15293678;19;20010;-78
2023/08/16 20:06:00;;;;;;;1.30;1.20;;;;;;;22.90;100.00;98696.41;15289969;19;20023;-76
2023/08/16 20:11:24;;;;;;;1.83;1.50;;;;;;;22.80;100.00;98698.03;15290060;19;19999;-76
2023/08/16 20:16:52;;;;;;;2.38;1.20;;;;;;;22.72;100.00;98702.81;15286452;19;20013;-76
2023/08/16 20:22:16;;;;;;;1.60;1.23;;;;;;;22.66;100.00;98695.50;15289145;19;20014;-77
2023/08/16 20:27:41;;;;;;;1.33;1.17;;;;;;;22.55;100.00;98699.88;15288951;19;20010;-76
2023/08/16 20:33:08;;;;;;;2.97;1.40;;;;;;;22.49;100.00;98708.22;15288511;19;20030;-76
2023/08/16 20:38:33;;;;;;;3.55;1.20;;;;;;;22.40;100.00;98711.22;15285953;19;20018;-77
2023/08/16 20:43:57;;;;;;;1.48;1.30;;;;;;;22.37;100.00;98708.97;15289538;19;20070;-77
2023/08/16 20:49:26;;;;;;;2.03;1.30;;;;;;;22.36;100.00;98687.22;15317046;19;20386;-78
2023/08/16 20:54:51;;;;;;;1.38;1.13;;;;;;;22.33;100.00;98694.00;15309953;19;20469;-77
2023/08/16 21:00:17;;;;;;;1.70;1.10;;;;;;;22.29;100.00;98679.06;15304322;19;20031;-76
2023/08/16 21:05:44;;;;;;;2.55;1.30;;;;;;;22.28;100.00;98672.75;15299449;19;20010;-76
2023/08/16 21:11:10;;;;;;;1.55;1.30;;;;;;;22.27;100.00;98651.03;15303120;19;20042;-76
2023/08/16 21:16:35;;;;;;;2.58;1.20;;;;;;;22.23;100.00;98642.41;15297197;19;20097;-76
2023/08/16 21:22:03;;;;;;;1.33;1.20;;;;;;;22.13;100.00;98648.47;15301909;19;20090;-76
2023/08/16 21:27:27;;;;;;;1.20;1.10;;;;;;;22.05;100.00;98654.25;15300595;19;20010;-76
2023/08/16 21:32:52;;;;;;;1.75;1.20;;;;;;;21.99;100.00;98666.16;15299766;19;20027;-77
2023/08/16 21:38:19;;;;;;;1.20;1.10;;;;;;;21.96;100.00;98680.34;15298283;19;20019;-77
2023/08/16 21:43:44;;;;;;;1.40;1.30;;;;;;;21.87;100.00;98696.28;15299237;19;20037;-76
2023/08/16 21:49:10;;;;;;;3.45;1.38;;;;;;;21.81;100.00;98691.69;15300151;19;20013;-77
2023/08/16 21:54:38;;;;;;;2.33;1.40;;;;;;;21.74;100.00;98693.69;15296047;19;20011;-77
2023/08/16 22:00:04;;;;;;;1.98;1.23;;;;;;;21.65;100.00;98701.38;15300304;19;20025;-76
2023/08/16 22:05:29;;;;;;;1.58;1.40;;;;;;;21.55;100.00;98716.41;15292153;19;20014;-77
2023/08/16 22:10:57;;;;;;;1.63;1.42;;;;;;;21.51;100.00;98717.91;15299897;19;20704;-77
2023/08/16 22:16:30;;;;;;;2.45;1.52;;;;;;;21.48;100.00;98712.03;15309127;19;20007;-76
2023/08/16 22:21:59;;;;;;;1.73;1.50;;;;;;;21.50;100.00;98679.75;15326860;19;20018;-76
2023/08/16 22:27:27;;;;;;;4.70;1.50;;;;;;;21.54;100.00;98646.19;15315713;19;20025;-75
2023/08/16 22:32:56;;;;;;;2.63;1.50;;;;;;;21.52;100.00;98647.50;15301583;19;20018;-75
2023/08/16 22:38:32;;;;;;;4.75;1.50;;;;;;;21.46;100.00;98651.94;15308854;19;20007;-75
2023/08/16 22:44:03;;;;;;;2.37;1.60;;;;;;;21.40;100.00;98650.94;15316489;19;20020;-77
2023/08/16 22:49:30;;;;;;;2.80;1.70;;;;;;;21.35;100.00;98656.28;15312722;19;20082;-76
2023/08/16 22:54:55;;;;;;;1.88;1.70;;;;;;;21.29;100.00;98657.16;15302253;19;20017;-76
2023/08/16 23:00:27;;;;;;;2.25;1.60;;;;;;;21.24;100.00;98654.28;15316430;19;20010;-77
2023/08/16 23:05:52;;;;;;;1.90;1.60;;;;;;;21.21;100.00;98661.06;15295154;19;20361;-79
2023/08/16 23:11:17;;;;;;;3.00;1.67;;;;;;;21.20;100.00;98653.91;15288795;19;20018;-75
2023/08/16 23:16:45;;;;;;;2.55;1.63;;;;;;;21.26;100.00;98657.66;15289483;19;20744;-77
2023/08/16 23:22:09;;;;;;;3.10;1.60;;;;;;;21.26;100.00;98663.13;15297779;19;20090;-77
2023/08/16 23:27:36;;;;;;;2.72;1.75;;;;;;;21.25;100.00;98688.84;15293270;19;20066;-76
2023/08/16 23:33:03;;;;;;;3.72;1.63;;;;;;;21.23;100.00;98685.50;15291882;19;20123;-77
2023/08/16 23:38:28;;;;;;;4.80;1.80;;;;;;;21.18;100.00;98699.00;15288965;19;20060;-77
2023/08/16 23:43:54;;;;;;;2.33;1.80;;;;;;;21.16;100.00;98699.25;15285762;19;20014;-78
2023/08/16 23:49:21;;;;;;;2.45;1.80;;;;;;;21.15;100.00;98689.34;15290913;19;20481;-78
2023/08/16 23:54:46;;;;;;;4.10;2.00;;;;;;;21.12;100.00;98684.31;15287359;19;20074;-77
